sensor_id;sensor_type;location;lat;lon;timestamp;noise_LAeq;noise_LA_min;noise_LA_max;noise_LA01;noise_LA95
74470;Laerm;62918;55.706;37.816;2023-05-10T00:00:07;55.32;43.92;62.68;;
74470;Laerm;62918;55.706;37.816;2023-05-10T00:00:37;46.44;42.92;61.97;;
74470;Laerm;62918;55.706;37.816;2023-05-10T00:01:08;50.47;43.39;58.81;;
74470;Laerm;62918;55.706;37.816;2023-05-10T00:01:39;54.07;48.66;59.15;;
74470;Laerm;62918;55.706;37.816;2023-05-10T00:02:09;58.94;50.39;66.08;;
74470;Laerm;62918;55.706;37.816;2023-05-10T00:02:40;65.86;51.21;75.79;;
74470;Laerm;62918;55.706;37.816;2023-05-10T00:03:10;50.38;44.04;57.04;;
74470;Laerm;62918;55.706;37.816;2023-05-10T00:03:41;52.18;47.04;59.82;;
74470;Laerm;62918;55.706;37.816;2023-05-10T00:04:12;46.43;42.68;51.16;;
74470;Laerm;62918;55.706;37.816;2023-05-10T00:04:42;53.51;45.01;59.15;;
74470;Laerm;62918;55.706;37.816;2023-05-10T00:05:13;55.29;50.60;61.02;;
74470;Laerm;62918;55.706;37.816;2023-05-10T00:05:43;58.73;52.54;65.51;;
74470;Laerm;62918;55.706;37.816;2023-05-10T00:06:14;64.09;54.39;77.63;;
74470;Laerm;62918;55.706;37.816;2023-05-10T00:06:45;53.94;44.81;61.28;;
74470;Laerm;62918;55.706;37.816;2023-05-10T00:07:15;56.11;44.94;63.65;;
74470;Laerm;62918;55.706;37.816;2023-05-10T00:07:47;58.03;51.38;63.14;;
74470;Laerm;62918;55.706;37.816;2023-05-10T00:08:18;56.93;45.82;70.39;;
74470;Laerm;62918;55.706;37.816;2023-05-10T00:08:48;52.03;45.78;57.45;;
74470;Laerm;62918;55.706;37.816;2023-05-10T00:09:19;58.43;50.49;63.83;;
74470;Laerm;62918;55.706;37.816;2023-05-10T00:09:50;48.82;43.30;57.14;;
74470;Laerm;62918;55.706;37.816;2023-05-10T00:10:20;49.24;44.11;56.06;;
74470;Laerm;62918;55.706;37.816;2023-05-10T00:10:52;58.78;43.81;65.55;;
74470;Laerm;62918;55.706;37.816;2023-05-10T00:11:23;62.29;51.88;72.32;;
74470;Laerm;62918;55.706;37.816;2023-05-10T00:11:53;61.04;46.24;70.58;;
74470;Laerm;62918;55.706;37.816;2023-05-10T00:12:24;59.28;45.81;69.42;;
74470;Laerm;62918;55.706;37.816;2023-05-10T00:12:55;52.98;47.65;59.73;;
74470;Laerm;62918;55.706;37.816;2023-05-10T00:13:25;52.23;47.90;56.98;;
74470;Laerm;62918;55.706;37.816;2023-05-10T00:13:56;57.94;51.85;64.74;;
74470;Laerm;62918;55.706;37.816;2023-05-10T00:14:27;61.08;52.60;68.74;;
74470;Laerm;62918;55.706;37.816;2023-05-10T00:14:57;54.23;42.90;61.36;;
74470;Laerm;62918;55.706;37.816;2023-05-10T00:15:28;54.40;41.64;62.51;;
74470;Laerm;62918;55.706;37.816;2023-05-10T00:16:00;61.83;54.96;67.75;;
74470;Laerm;62918;55.706;37.816;2023-05-10T00:16:31;58.70;51.03;69.78;;
74470;Laerm;62918;55.706;37.816;2023-05-10T00:17:02;49.91;46.72;55.23;;
74470;Laerm;62918;55.706;37.816;2023-05-10T00:17:32;52.64;48.52;57.28;;
74470;Laerm;62918;55.706;37.816;2023-05-10T00:18:03;52.21;47.93;57.36;;
74470;Laerm;62918;55.706;37.816;2023-05-10T00:18:33;54.17;46.68;65.78;;
74470;Laerm;62918;55.706;37.816;2023-05-10T00:19:04;52.29;46.45;59.81;;
74470;Laerm;62918;55.706;37.816;2023-05-10T00:19:34;48.32;45.97;52.76;;
74470;Laerm;62918;55.706;37.816;2023-05-10T00:20:06;53.89;46.11;59.25;;
74470;Laerm;62918;55.706;37.816;2023-05-10T00:20:36;48.14;45.47;50.62;;
74470;Laerm;62918;55.706;37.816;2023-05-10T00:21:07;58.48;47.62;64.49;;
74470;Laerm;62918;55.706;37.816;2023-05-10T00:21:38;51.07;46.95;59.81;;
74470;Laerm;62918;55.706;37.816;2023-05-10T00:22:08;59.26;47.25;67.28;;
74470;Laerm;62918;55.706;37.816;2023-05-10T00:22:39;56.03;47.23;63.65;;
74470;Laerm;62918;55.706;37.816;2023-05-10T00:23:09;57.20;46.78;65.70;;
74470;Laerm;62918;55.706;37.816;2023-05-10T00:23:40;55.96;47.39;62.18;;
74470;Laerm;62918;55.706;37.816;2023-05-10T00:24:11;51.71;45.98;60.40;;
74470;Laerm;62918;55.706;37.816;2023-05-10T00:24:41;54.29;48.17;62.50;;
74470;Laerm;62918;55.706;37.816;2023-05-10T00:25:12;49.31;45.80;53.65;;
74470;Laerm;62918;55.706;37.816;2023-05-10T00:25:42;54.40;45.58;63.04;;
74470;Laerm;62918;55.706;37.816;2023-05-10T00:26:13;58.54;49.61;69.28;;
74470;Laerm;62918;55.706;37.816;2023-05-10T00:26:44;50.90;47.23;56.64;;
74470;Laerm;62918;55.706;37.816;2023-05-10T00:27:14;59.57;45.37;69.46;;
74470;Laerm;62918;55.706;37.816;2023-05-10T00:27:45;48.82;46.22;53.53;;
74470;Laerm;62918;55.706;37.816;2023-05-10T00:28:16;51.42;46.70;56.62;;
74470;Laerm;62918;55.706;37.816;2023-05-10T00:28:46;53.23;45.83;59.69;;
74470;Laerm;62918;55.706;37.816;2023-05-10T00:29:17;62.20;53.97;70.23;;
74470;Laerm;62918;55.706;37.816;2023-05-10T00:29:47;60.17;53.98;66.31;;
74470;Laerm;62918;55.706;37.816;2023-05-10T00:30:18;60.21;53.43;65.54;;
74470;Laerm;62918;55.706;37.816;2023-05-10T00:30:49;53.77;49.73;62.99;;
74470;Laerm;62918;55.706;37.816;2023-05-10T00:31:19;66.08;52.57;72.83;;
74470;Laerm;62918;55.706;37.816;2023-05-10T00:31:50;56.02;42.92;64.06;;
74470;Laerm;62918;55.706;37.816;2023-05-10T00:32:21;50.50;41.80;59.33;;
74470;Laerm;62918;55.706;37.816;2023-05-10T00:32:51;46.41;43.02;53.25;;
74470;Laerm;62918;55.706;37.816;2023-05-10T00:33:22;55.24;44.10;62.90;;
74470;Laerm;62918;55.706;37.816;2023-05-10T00:33:52;45.77;42.07;49.81;;
74470;Laerm;62918;55.706;37.816;2023-05-10T00:34:23;51.58;42.15;64.62;;
74470;Laerm;62918;55.706;37.816;2023-05-10T00:34:54;46.88;43.59;50.37;;
74470;Laerm;62918;55.706;37.816;2023-05-10T00:35:25;45.05;42.21;49.53;;
74470;Laerm;62918;55.706;37.816;2023-05-10T00:35:56;58.24;43.08;66.48;;
74470;Laerm;62918;55.706;37.816;2023-05-10T00:36:26;53.36;44.18;63.20;;
74470;Laerm;62918;55.706;37.816;2023-05-10T00:36:57;54.74;43.19;63.38;;
74470;Laerm;62918;55.706;37.816;2023-05-10T00:37:28;58.22;45.15;65.72;;
74470;Laerm;62918;55.706;37.816;2023-05-10T00:37:59;60.18;46.73;69.56;;
74470;Laerm;62918;55.706;37.816;2023-05-10T00:38:29;54.40;46.37;71.59;;
74470;Laerm;62918;55.706;37.816;2023-05-10T00:39:00;55.50;46.57;62.20;;
74470;Laerm;62918;55.706;37.816;2023-05-10T00:39:31;58.25;49.80;65.63;;
74470;Laerm;62918;55.706;37.816;2023-05-10T00:40:01;47.91;42.38;56.14;;
74470;Laerm;62918;55.706;37.816;2023-05-10T00:40:32;50.53;43.02;56.93;;
74470;Laerm;62918;55.706;37.816;2023-05-10T00:41:03;55.11;44.93;63.86;;
74470;Laerm;62918;55.706;37.816;2023-05-10T00:41:34;53.13;45.38;61.95;;
74470;Laerm;62918;55.706;37.816;2023-05-10T00:42:04;57.00;47.99;62.40;;
74470;Laerm;62918;55.706;37.816;2023-05-10T00:42:35;55.59;46.21;62.37;;
74470;Laerm;62918;55.706;37.816;2023-05-10T00:43:06;61.12;43.82;69.44;;
74470;Laerm;62918;55.706;37.816;2023-05-10T00:43:36;46.05;42.82;50.23;;
74470;Laerm;62918;55.706;37.816;2023-05-10T00:44:07;55.35;45.42;63.44;;
74470;Laerm;62918;55.706;37.816;2023-05-10T00:44:38;54.20;44.27;63.90;;
74470;Laerm;62918;55.706;37.816;2023-05-10T00:45:08;59.91;47.05;66.04;;
74470;Laerm;62918;55.706;37.816;2023-05-10T00:45:40;57.19;47.00;62.70;;
74470;Laerm;62918;55.706;37.816;2023-05-10T00:46:11;53.39;45.54;60.23;;
74470;Laerm;62918;55.706;37.816;2023-05-10T00:46:44;52.82;46.44;59.50;;
74470;Laerm;62918;55.706;37.816;2023-05-10T00:47:17;55.03;44.69;62.65;;
74470;Laerm;62918;55.706;37.816;2023-05-10T00:47:48;47.02;43.74;54.35;;
74470;Laerm;62918;55.706;37.816;2023-05-10T00:48:19;54.74;46.86;61.15;;
74470;Laerm;62918;55.706;37.816;2023-05-10T00:48:50;59.93;49.30;67.00;;
74470;Laerm;62918;55.706;37.816;2023-05-10T00:49:21;48.63;43.75;56.84;;
74470;Laerm;62918;55.706;37.816;2023-05-10T00:49:51;57.13;50.61;62.69;;
74470;Laerm;62918;55.706;37.816;2023-05-10T00:50:23;56.08;43.78;65.47;;
74470;Laerm;62918;55.706;37.816;2023-05-10T00:50:54;58.23;47.66;66.86;;
74470;Laerm;62918;55.706;37.816;2023-05-10T00:51:24;56.17;47.14;65.37;;
74470;Laerm;62918;55.706;37.816;2023-05-10T00:51:55;48.65;40.82;56.88;;
74470;Laerm;62918;55.706;37.816;2023-05-10T00:52:27;58.36;43.81;64.41;;
74470;Laerm;62918;55.706;37.816;2023-05-10T00:52:59;51.14;41.24;59.48;;
74470;Laerm;62918;55.706;37.816;2023-05-10T00:53:31;52.41;41.12;63.72;;
74470;Laerm;62918;55.706;37.816;2023-05-10T00:54:02;57.69;46.54;64.37;;
74470;Laerm;62918;55.706;37.816;2023-05-10T00:54:33;55.83;47.25;63.42;;
74470;Laerm;62918;55.706;37.816;2023-05-10T00:55:04;56.05;48.27;63.07;;
74470;Laerm;62918;55.706;37.816;2023-05-10T00:55:36;53.64;45.13;62.02;;
74470;Laerm;62918;55.706;37.816;2023-05-10T00:56:07;53.80;44.35;62.16;;
74470;Laerm;62918;55.706;37.816;2023-05-10T00:56:38;47.97;43.76;56.22;;
74470;Laerm;62918;55.706;37.816;2023-05-10T00:57:09;64.64;51.60;73.58;;
74470;Laerm;62918;55.706;37.816;2023-05-10T00:57:39;58.59;49.47;65.40;;
74470;Laerm;62918;55.706;37.816;2023-05-10T00:58:10;53.28;46.59;61.64;;
74470;Laerm;62918;55.706;37.816;2023-05-10T00:58:41;63.79;45.21;74.19;;
74470;Laerm;62918;55.706;37.816;2023-05-10T00:59:12;55.28;43.08;62.89;;
74470;Laerm;62918;55.706;37.816;2023-05-10T00:59:42;56.48;43.57;62.17;;
74470;Laerm;62918;55.706;37.816;2023-05-10T01:00:14;50.85;43.36;57.74;;
74470;Laerm;62918;55.706;37.816;2023-05-10T01:00:48;56.95;43.90;67.56;;
74470;Laerm;62918;55.706;37.816;2023-05-10T01:01:20;61.02;52.16;68.00;;
74470;Laerm;62918;55.706;37.816;2023-05-10T01:01:50;59.49;44.76;69.56;;
74470;Laerm;62918;55.706;37.816;2023-05-10T01:02:21;53.04;43.61;60.53;;
74470;Laerm;62918;55.706;37.816;2023-05-10T01:02:53;63.03;48.91;70.81;;
74470;Laerm;62918;55.706;37.816;2023-05-10T01:03:25;50.52;43.36;57.34;;
74470;Laerm;62918;55.706;37.816;2023-05-10T01:03:55;49.28;43.90;53.10;;
74470;Laerm;62918;55.706;37.816;2023-05-10T01:04:27;47.07;42.70;55.13;;
74470;Laerm;62918;55.706;37.816;2023-05-10T01:04:59;51.91;43.81;56.69;;
74470;Laerm;62918;55.706;37.816;2023-05-10T01:05:30;50.45;42.73;56.85;;
74470;Laerm;62918;55.706;37.816;2023-05-10T01:06:02;57.40;46.52;68.55;;
74470;Laerm;62918;55.706;37.816;2023-05-10T01:06:33;57.55;48.53;66.51;;
74470;Laerm;62918;55.706;37.816;2023-05-10T01:07:04;52.17;46.45;57.43;;
74470;Laerm;62918;55.706;37.816;2023-05-10T01:07:34;57.08;49.47;62.11;;
74470;Laerm;62918;55.706;37.816;2023-05-10T01:08:05;55.32;42.74;62.32;;
74470;Laerm;62918;55.706;37.816;2023-05-10T01:08:36;45.86;43.15;48.14;;
74470;Laerm;62918;55.706;37.816;2023-05-10T01:09:07;65.85;45.06;73.90;;
74470;Laerm;62918;55.706;37.816;2023-05-10T01:09:38;56.59;44.79;63.46;;
74470;Laerm;62918;55.706;37.816;2023-05-10T01:10:09;46.51;43.63;50.08;;
74470;Laerm;62918;55.706;37.816;2023-05-10T01:10:41;56.03;45.24;67.87;;
74470;Laerm;62918;55.706;37.816;2023-05-10T01:11:12;58.35;51.48;64.35;;
74470;Laerm;62918;55.706;37.816;2023-05-10T01:11:42;59.99;49.15;64.45;;
74470;Laerm;62918;55.706;37.816;2023-05-10T01:12:14;53.87;43.52;62.22;;
74470;Laerm;62918;55.706;37.816;2023-05-10T01:12:46;54.96;48.38;60.74;;
74470;Laerm;62918;55.706;37.816;2023-05-10T01:13:28;51.42;42.35;62.71;;
74470;Laerm;62918;55.706;37.816;2023-05-10T01:14:00;60.78;48.69;68.08;;
74470;Laerm;62918;55.706;37.816;2023-05-10T01:14:30;55.75;47.04;64.44;;
74470;Laerm;62918;55.706;37.816;2023-05-10T01:15:01;55.26;44.63;61.68;;
74470;Laerm;62918;55.706;37.816;2023-05-10T01:15:32;60.35;43.15;68.84;;
74470;Laerm;62918;55.706;37.816;2023-05-10T01:16:04;52.24;45.73;64.91;;
74470;Laerm;62918;55.706;37.816;2023-05-10T01:16:38;49.07;41.95;63.78;;
74470;Laerm;62918;55.706;37.816;2023-05-10T01:17:10;54.86;42.61;64.88;;
74470;Laerm;62918;55.706;37.816;2023-05-10T01:17:44;51.16;43.19;59.58;;
74470;Laerm;62918;55.706;37.816;2023-05-10T01:18:17;58.08;49.49;65.70;;
74470;Laerm;62918;55.706;37.816;2023-05-10T01:18:49;50.77;43.66;58.15;;
74470;Laerm;62918;55.706;37.816;2023-05-10T01:19:26;46.75;43.13;55.47;;
74470;Laerm;62918;55.706;37.816;2023-05-10T01:19:57;53.72;43.35;73.72;;
74470;Laerm;62918;55.706;37.816;2023-05-10T01:20:34;56.32;45.46;63.72;;
74470;Laerm;62918;55.706;37.816;2023-05-10T01:21:31;58.76;50.72;65.62;;
74470;Laerm;62918;55.706;37.816;2023-05-10T01:23:30;55.83;44.78;64.67;;
74470;Laerm;62918;55.706;37.816;2023-05-10T01:24:21;51.21;44.08;62.24;;
74470;Laerm;62918;55.706;37.816;2023-05-10T01:29:15;53.67;45.63;58.62;;
74470;Laerm;62918;55.706;37.816;2023-05-10T01:32:36;54.14;45.39;61.69;;
74470;Laerm;62918;55.706;37.816;2023-05-10T01:34:11;58.74;44.22;67.61;;
74470;Laerm;62918;55.706;37.816;2023-05-10T01:35:45;54.23;45.24;61.67;;
74470;Laerm;62918;55.706;37.816;2023-05-10T01:36:29;54.10;46.54;62.10;;
74470;Laerm;62918;55.706;37.816;2023-05-10T01:38:18;55.00;47.39;63.47;;
74470;Laerm;62918;55.706;37.816;2023-05-10T01:38:55;56.14;46.73;62.93;;
74470;Laerm;62918;55.706;37.816;2023-05-10T01:39:45;59.69;48.57;68.72;;
74470;Laerm;62918;55.706;37.816;2023-05-10T01:40:25;57.39;45.89;66.99;;
74470;Laerm;62918;55.706;37.816;2023-05-10T01:41:57;55.86;46.81;64.94;;
74470;Laerm;62918;55.706;37.816;2023-05-10T01:42:42;58.19;52.29;64.31;;
74470;Laerm;62918;55.706;37.816;2023-05-10T01:43:21;52.82;46.60;60.90;;
74470;Laerm;62918;55.706;37.816;2023-05-10T01:44:18;53.28;46.80;59.92;;
74470;Laerm;62918;55.706;37.816;2023-05-10T01:45:09;51.15;44.53;56.88;;
74470;Laerm;62918;55.706;37.816;2023-05-10T01:46:14;49.41;43.13;57.59;;
74470;Laerm;62918;55.706;37.816;2023-05-10T01:47:01;59.76;48.49;70.02;;
74470;Laerm;62918;55.706;37.816;2023-05-10T01:47:40;58.36;45.24;69.28;;
74470;Laerm;62918;55.706;37.816;2023-05-10T01:48:16;46.68;44.13;49.32;;
74470;Laerm;62918;55.706;37.816;2023-05-10T01:48:52;55.54;46.20;63.61;;
74470;Laerm;62918;55.706;37.816;2023-05-10T01:49:26;49.67;45.36;57.26;;
74470;Laerm;62918;55.706;37.816;2023-05-10T01:50:02;54.61;47.93;60.89;;
74470;Laerm;62918;55.706;37.816;2023-05-10T01:50:36;52.52;44.52;59.69;;
74470;Laerm;62918;55.706;37.816;2023-05-10T01:51:08;56.26;43.71;64.86;;
74470;Laerm;62918;55.706;37.816;2023-05-10T01:51:50;57.10;51.44;64.56;;
74470;Laerm;62918;55.706;37.816;2023-05-10T01:52:33;50.01;45.23;57.10;;
74470;Laerm;62918;55.706;37.816;2023-05-10T01:53:09;52.91;45.13;58.97;;
74470;Laerm;62918;55.706;37.816;2023-05-10T01:53:42;46.57;43.91;50.78;;
74470;Laerm;62918;55.706;37.816;2023-05-10T01:54:17;50.01;43.93;58.28;;
74470;Laerm;62918;55.706;37.816;2023-05-10T01:54:55;49.35;43.78;57.93;;
74470;Laerm;62918;55.706;37.816;2023-05-10T01:55:29;52.98;44.43;59.26;;
74470;Laerm;62918;55.706;37.816;2023-05-10T01:56:01;53.43;43.89;61.53;;
74470;Laerm;62918;55.706;37.816;2023-05-10T01:56:35;53.04;45.72;62.00;;
74470;Laerm;62918;55.706;37.816;2023-05-10T01:57:09;54.22;51.00;57.57;;
74470;Laerm;62918;55.706;37.816;2023-05-10T01:57:44;58.44;51.02;69.04;;
74470;Laerm;62918;55.706;37.816;2023-05-10T01:58:35;62.17;47.66;69.49;;
74470;Laerm;62918;55.706;37.816;2023-05-10T01:59:15;62.97;47.88;70.77;;
74470;Laerm;62918;55.706;37.816;2023-05-10T01:59:49;53.86;46.04;63.81;;
74470;Laerm;62918;55.706;37.816;2023-05-10T02:00:21;56.68;46.58;65.27;;
74470;Laerm;62918;55.706;37.816;2023-05-10T02:00:53;48.06;44.64;50.82;;
74470;Laerm;62918;55.706;37.816;2023-05-10T02:01:25;53.99;47.84;61.42;;
74470;Laerm;62918;55.706;37.816;2023-05-10T02:01:58;54.47;47.50;61.37;;
74470;Laerm;62918;55.706;37.816;2023-05-10T02:02:33;57.21;49.75;63.49;;
74470;Laerm;62918;55.706;37.816;2023-05-10T02:03:07;58.11;47.90;66.38;;
74470;Laerm;62918;55.706;37.816;2023-05-10T02:03:39;52.80;45.90;60.14;;
74470;Laerm;62918;55.706;37.816;2023-05-10T02:04:15;56.39;48.99;65.23;;
74470;Laerm;62918;55.706;37.816;2023-05-10T02:04:47;48.88;45.19;56.58;;
74470;Laerm;62918;55.706;37.816;2023-05-10T02:05:20;54.22;47.69;64.09;;
74470;Laerm;62918;55.706;37.816;2023-05-10T02:05:53;52.91;47.85;61.44;;
74470;Laerm;62918;55.706;37.816;2023-05-10T02:06:25;58.85;49.90;68.04;;
74470;Laerm;62918;55.706;37.816;2023-05-10T02:06:57;55.39;49.35;64.12;;
74470;Laerm;62918;55.706;37.816;2023-05-10T02:07:28;62.79;51.33;68.12;;
74470;Laerm;62918;55.706;37.816;2023-05-10T02:07:59;62.65;55.91;68.79;;
74470;Laerm;62918;55.706;37.816;2023-05-10T02:08:33;59.54;56.70;62.01;;
74470;Laerm;62918;55.706;37.816;2023-05-10T02:09:06;68.57;56.79;78.94;;
74470;Laerm;62918;55.706;37.816;2023-05-10T02:09:38;64.82;55.06;72.24;;
74470;Laerm;62918;55.706;37.816;2023-05-10T02:10:10;53.18;47.22;70.75;;
74470;Laerm;62918;55.706;37.816;2023-05-10T02:10:42;52.72;49.21;58.82;;
74470;Laerm;62918;55.706;37.816;2023-05-10T02:11:17;62.69;49.72;78.68;;
74470;Laerm;62918;55.706;37.816;2023-05-10T02:11:48;56.18;47.37;81.58;;
74470;Laerm;62918;55.706;37.816;2023-05-10T02:12:20;64.24;50.71;82.11;;
74470;Laerm;62918;55.706;37.816;2023-05-10T02:12:53;60.82;52.36;76.23;;
74470;Laerm;62918;55.706;37.816;2023-05-10T02:13:26;61.66;52.16;77.46;;
74470;Laerm;62918;55.706;37.816;2023-05-10T02:13:58;61.05;51.43;67.70;;
74470;Laerm;62918;55.706;37.816;2023-05-10T02:14:35;62.28;50.83;69.15;;
74470;Laerm;62918;55.706;37.816;2023-05-10T02:15:07;56.22;51.74;61.02;;
74470;Laerm;62918;55.706;37.816;2023-05-10T02:15:40;58.90;53.80;63.05;;
74470;Laerm;62918;55.706;37.816;2023-05-10T02:16:12;60.23;53.09;66.04;;
74470;Laerm;62918;55.706;37.816;2023-05-10T02:16:44;58.63;51.82;69.57;;
74470;Laerm;62918;55.706;37.816;2023-05-10T02:17:17;59.03;49.08;68.22;;
74470;Laerm;62918;55.706;37.816;2023-05-10T02:17:48;53.52;48.51;64.36;;
74470;Laerm;62918;55.706;37.816;2023-05-10T02:18:21;49.78;46.49;54.44;;
74470;Laerm;62918;55.706;37.816;2023-05-10T02:18:54;57.82;51.25;70.19;;
74470;Laerm;62918;55.706;37.816;2023-05-10T02:19:28;56.38;47.96;62.75;;
74470;Laerm;62918;55.706;37.816;2023-05-10T02:20:01;60.07;48.21;65.63;;
74470;Laerm;62918;55.706;37.816;2023-05-10T02:20:33;56.37;49.93;61.05;;
74470;Laerm;62918;55.706;37.816;2023-05-10T02:21:05;60.72;49.44;67.48;;
74470;Laerm;62918;55.706;37.816;2023-05-10T02:21:38;51.04;47.20;57.57;;
74470;Laerm;62918;55.706;37.816;2023-05-10T02:22:10;53.66;47.66;63.59;;
74470;Laerm;62918;55.706;37.816;2023-05-10T02:22:41;52.10;47.39;56.61;;
74470;Laerm;62918;55.706;37.816;2023-05-10T02:23:14;59.98;49.67;67.32;;
74470;Laerm;62918;55.706;37.816;2023-05-10T02:23:46;64.90;49.48;73.74;;
74470;Laerm;62918;55.706;37.816;2023-05-10T02:24:17;52.32;47.05;61.57;;
74470;Laerm;62918;55.706;37.816;2023-05-10T02:24:49;58.79;48.11;70.74;;
74470;Laerm;62918;55.706;37.816;2023-05-10T02:25:22;60.30;49.44;70.73;;
74470;Laerm;62918;55.706;37.816;2023-05-10T02:25:54;58.05;50.94;63.94;;
74470;Laerm;62918;55.706;37.816;2023-05-10T02:26:27;57.46;50.41;65.21;;
74470;Laerm;62918;55.706;37.816;2023-05-10T02:26:58;64.39;56.74;70.21;;
74470;Laerm;62918;55.706;37.816;2023-05-10T02:27:30;62.94;52.51;68.81;;
74470;Laerm;62918;55.706;37.816;2023-05-10T02:28:04;58.10;51.72;67.32;;
74470;Laerm;62918;55.706;37.816;2023-05-10T02:28:36;55.65;50.64;62.34;;
74470;Laerm;62918;55.706;37.816;2023-05-10T02:29:08;57.20;50.48;63.52;;
74470;Laerm;62918;55.706;37.816;2023-05-10T02:29:40;54.85;49.19;61.28;;
74470;Laerm;62918;55.706;37.816;2023-05-10T02:30:11;57.88;47.90;67.50;;
74470;Laerm;62918;55.706;37.816;2023-05-10T02:30:43;58.56;49.66;73.95;;
74470;Laerm;62918;55.706;37.816;2023-05-10T02:31:14;55.00;49.86;59.61;;
74470;Laerm;62918;55.706;37.816;2023-05-10T02:31:45;51.70;48.41;55.82;;
74470;Laerm;62918;55.706;37.816;2023-05-10T02:32:17;56.85;48.69;63.86;;
74470;Laerm;62918;55.706;37.816;2023-05-10T02:32:49;58.76;51.45;67.98;;
74470;Laerm;62918;55.706;37.816;2023-05-10T02:33:20;59.54;51.07;66.35;;
74470;Laerm;62918;55.706;37.816;2023-05-10T02:33:53;58.77;50.82;65.10;;
74470;Laerm;62918;55.706;37.816;2023-05-10T02:34:26;56.44;49.16;62.85;;
74470;Laerm;62918;55.706;37.816;2023-05-10T02:34:59;62.62;51.10;73.90;;
74470;Laerm;62918;55.706;37.816;2023-05-10T02:35:32;61.81;56.42;66.86;;
74470;Laerm;62918;55.706;37.816;2023-05-10T02:36:04;62.08;54.29;72.79;;
74470;Laerm;62918;55.706;37.816;2023-05-10T02:36:36;61.21;54.67;66.17;;
74470;Laerm;62918;55.706;37.816;2023-05-10T02:37:08;58.23;50.48;66.36;;
74470;Laerm;62918;55.706;37.816;2023-05-10T02:37:41;56.40;51.31;61.10;;
74470;Laerm;62918;55.706;37.816;2023-05-10T02:38:13;60.69;51.82;67.62;;
74470;Laerm;62918;55.706;37.816;2023-05-10T02:38:45;59.78;53.79;67.03;;
74470;Laerm;62918;55.706;37.816;2023-05-10T02:39:19;62.62;55.86;71.44;;
74470;Laerm;62918;55.706;37.816;2023-05-10T02:39:52;67.03;54.72;74.30;;
74470;Laerm;62918;55.706;37.816;2023-05-10T02:40:24;53.06;48.29;59.53;;
74470;Laerm;62918;55.706;37.816;2023-05-10T02:40:57;53.78;49.18;58.18;;
74470;Laerm;62918;55.706;37.816;2023-05-10T02:41:30;59.45;48.84;65.09;;
74470;Laerm;62918;55.706;37.816;2023-05-10T02:42:03;57.35;51.31;64.95;;
74470;Laerm;62918;55.706;37.816;2023-05-10T02:42:37;59.72;50.39;67.13;;
74470;Laerm;62918;55.706;37.816;2023-05-10T02:43:13;57.42;50.18;65.66;;
74470;Laerm;62918;55.706;37.816;2023-05-10T02:43:45;55.42;47.58;61.67;;
74470;Laerm;62918;55.706;37.816;2023-05-10T02:44:18;60.99;54.56;66.93;;
74470;Laerm;62918;55.706;37.816;2023-05-10T02:44:51;57.97;51.51;62.02;;
74470;Laerm;62918;55.706;37.816;2023-05-10T02:45:26;59.49;52.16;64.64;;
74470;Laerm;62918;55.706;37.816;2023-05-10T02:45:58;62.48;55.59;67.20;;
74470;Laerm;62918;55.706;37.816;2023-05-10T02:46:29;61.45;54.04;74.92;;
74470;Laerm;62918;55.706;37.816;2023-05-10T02:47:00;66.56;58.44;78.19;;
74470;Laerm;62918;55.706;37.816;2023-05-10T02:47:31;61.95;53.45;67.41;;
74470;Laerm;62918;55.706;37.816;2023-05-10T02:48:02;59.97;56.81;64.66;;
74470;Laerm;62918;55.706;37.816;2023-05-10T02:48:33;63.71;58.03;68.01;;
74470;Laerm;62918;55.706;37.816;2023-05-10T02:49:04;60.01;55.17;64.79;;
74470;Laerm;62918;55.706;37.816;2023-05-10T02:49:34;60.35;54.34;67.49;;
74470;Laerm;62918;55.706;37.816;2023-05-10T02:50:05;64.93;54.47;70.96;;
74470;Laerm;62918;55.706;37.816;2023-05-10T02:50:37;54.10;49.83;59.47;;
74470;Laerm;62918;55.706;37.816;2023-05-10T02:51:11;60.19;52.15;73.80;;
74470;Laerm;62918;55.706;37.816;2023-05-10T02:51:49;58.79;52.76;68.63;;
74470;Laerm;62918;55.706;37.816;2023-05-10T02:52:27;60.40;50.82;66.19;;
74470;Laerm;62918;55.706;37.816;2023-05-10T02:53:04;55.52;50.44;62.02;;
74470;Laerm;62918;55.706;37.816;2023-05-10T02:53:37;63.74;50.91;70.45;;
74470;Laerm;62918;55.706;37.816;2023-05-10T02:54:16;64.61;55.98;69.58;;
74470;Laerm;62918;55.706;37.816;2023-05-10T02:54:50;63.01;54.45;71.36;;
74470;Laerm;62918;55.706;37.816;2023-05-10T02:55:25;54.87;51.05;59.50;;
74470;Laerm;62918;55.706;37.816;2023-05-10T02:56:00;53.39;48.92;58.64;;
74470;Laerm;62918;55.706;37.816;2023-05-10T02:56:35;57.85;49.67;67.55;;
74470;Laerm;62918;55.706;37.816;2023-05-10T02:57:11;56.37;52.24;62.94;;
74470;Laerm;62918;55.706;37.816;2023-05-10T02:57:50;60.50;51.04;71.93;;
74470;Laerm;62918;55.706;37.816;2023-05-10T02:58:22;64.05;59.12;67.48;;
74470;Laerm;62918;55.706;37.816;2023-05-10T02:58:52;65.62;54.23;72.25;;
74470;Laerm;62918;55.706;37.816;2023-05-10T02:59:23;63.39;56.94;70.80;;
74470;Laerm;62918;55.706;37.816;2023-05-10T02:59:54;61.08;50.22;67.42;;
74470;Laerm;62918;55.706;37.816;2023-05-10T03:00:25;59.90;54.92;65.23;;
74470;Laerm;62918;55.706;37.816;2023-05-10T03:00:56;61.21;55.22;65.65;;
74470;Laerm;62918;55.706;37.816;2023-05-10T03:01:27;59.08;51.79;68.96;;
74470;Laerm;62918;55.706;37.816;2023-05-10T03:01:59;68.54;63.98;74.09;;
74470;Laerm;62918;55.706;37.816;2023-05-10T03:02:33;61.88;54.93;69.64;;
74470;Laerm;62918;55.706;37.816;2023-05-10T03:03:04;61.94;54.79;72.37;;
74470;Laerm;62918;55.706;37.816;2023-05-10T03:03:34;64.37;59.36;68.24;;
74470;Laerm;62918;55.706;37.816;2023-05-10T03:04:05;62.24;54.31;70.20;;
74470;Laerm;62918;55.706;37.816;2023-05-10T03:04:36;68.52;57.22;74.72;;
74470;Laerm;62918;55.706;37.816;2023-05-10T03:05:07;60.25;52.15;65.70;;
74470;Laerm;62918;55.706;37.816;2023-05-10T03:05:37;58.60;52.52;62.60;;
74470;Laerm;62918;55.706;37.816;2023-05-10T03:06:08;57.19;49.62;62.96;;
74470;Laerm;62918;55.706;37.816;2023-05-10T03:06:40;60.13;54.97;66.45;;
74470;Laerm;62918;55.706;37.816;2023-05-10T03:07:11;61.52;57.34;69.77;;
74470;Laerm;62918;55.706;37.816;2023-05-10T03:07:42;70.39;57.08;76.50;;
74470;Laerm;62918;55.706;37.816;2023-05-10T03:08:13;63.56;56.16;71.62;;
74470;Laerm;62918;55.706;37.816;2023-05-10T03:08:44;60.84;54.57;68.60;;
74470;Laerm;62918;55.706;37.816;2023-05-10T03:09:15;58.67;51.76;65.97;;
74470;Laerm;62918;55.706;37.816;2023-05-10T03:09:46;65.33;59.23;70.44;;
74470;Laerm;62918;55.706;37.816;2023-05-10T03:10:18;60.12;52.84;67.13;;
74470;Laerm;62918;55.706;37.816;2023-05-10T03:11:02;60.21;53.55;64.96;;
74470;Laerm;62918;55.706;37.816;2023-05-10T03:13:14;62.21;55.75;67.92;;
74470;Laerm;62918;55.706;37.816;2023-05-10T03:14:57;63.87;57.40;76.01;;
74470;Laerm;62918;55.706;37.816;2023-05-10T03:16:16;61.49;51.27;70.32;;
74470;Laerm;62918;55.706;37.816;2023-05-10T03:17:04;62.44;53.06;67.89;;